sensor_id;sensor_type;location;lat;lon;timestamp;P1;durP1;ratioP1;P2;durP2;ratioP2
24421;SDS011;12600;53.326;-6.298;2024-03-02T00:01:29;5.75;;;2.83;;
24421;SDS011;12600;53.326;-6.298;2024-03-02T00:04:19;12.98;;;4.22;;
24421;SDS011;12600;53.326;-6.298;2024-03-02T00:07:08;12.55;;;3.75;;
24421;SDS011;12600;53.326;-6.298;2024-03-02T00:09:57;9.52;;;4.53;;
24421;SDS011;12600;53.326;-6.298;2024-03-02T00:12:47;11.02;;;3.90;;
24421;SDS011;12600;53.326;-6.298;2024-03-02T00:15:42;14.32;;;3.92;;
24421;SDS011;12600;53.326;-6.298;2024-03-02T00:18:37;9.80;;;2.72;;
24421;SDS011;12600;53.326;-6.298;2024-03-02T00:21:26;11.48;;;3.83;;
24421;SDS011;12600;53.326;-6.298;2024-03-02T00:24:19;7.45;;;3.35;;
24421;SDS011;12600;53.326;-6.298;2024-03-02T00:27:15;8.68;;;2.72;;
24421;SDS011;12600;53.326;-6.298;2024-03-02T00:30:16;6.20;;;2.63;;
24421;SDS011;12600;53.326;-6.298;2024-03-02T00:33:44;6.30;;;2.30;;
24421;SDS011;12600;53.326;-6.298;2024-03-02T00:36:34;5.13;;;2.20;;
24421;SDS011;12600;53.326;-6.298;2024-03-02T00:39:24;6.15;;;2.25;;
24421;SDS011;12600;53.326;-6.298;2024-03-02T00:42:13;11.80;;;2.83;;
24421;SDS011;12600;53.326;-6.298;2024-03-02T00:45:05;6.53;;;1.88;;
24421;SDS011;12600;53.326;-6.298;2024-03-02T00:47:57;8.38;;;2.20;;
24421;SDS011;12600;53.326;-6.298;2024-03-02T00:50:49;12.07;;;2.30;;
24421;SDS011;12600;53.326;-6.298;2024-03-02T00:56:30;3.78;;;1.90;;
24421;SDS011;12600;53.326;-6.298;2024-03-02T00:59:20;6.93;;;2.33;;
24421;SDS011;12600;53.326;-6.298;2024-03-02T01:02:11;5.70;;;2.17;;
24421;SDS011;12600;53.326;-6.298;2024-03-02T01:05:02;6.97;;;2.20;;
24421;SDS011;12600;53.326;-6.298;2024-03-02T01:07:53;5.65;;;1.73;;
24421;SDS011;12600;53.326;-6.298;2024-03-02T01:10:42;6.95;;;2.35;;
24421;SDS011;12600;53.326;-6.298;2024-03-02T01:13:32;6.55;;;2.30;;
24421;SDS011;12600;53.326;-6.298;2024-03-02T01:16:22;12.02;;;2.42;;
24421;SDS011;12600;53.326;-6.298;2024-03-02T01:19:11;8.88;;;2.70;;
24421;SDS011;12600;53.326;-6.298;2024-03-02T01:22:03;4.50;;;1.83;;
24421;SDS011;12600;53.326;-6.298;2024-03-02T01:24:53;4.88;;;1.92;;
24421;SDS011;12600;53.326;-6.298;2024-03-02T01:27:43;7.90;;;2.45;;
24421;SDS011;12600;53.326;-6.298;2024-03-02T01:30:36;7.38;;;2.70;;
24421;SDS011;12600;53.326;-6.298;2024-03-02T01:33:26;6.28;;;2.72;;
24421;SDS011;12600;53.326;-6.298;2024-03-02T01:36:15;10.32;;;2.80;;
24421;SDS011;12600;53.326;-6.298;2024-03-02T01:39:06;6.68;;;2.40;;
24421;SDS011;12600;53.326;-6.298;2024-03-02T01:41:56;10.63;;;2.50;;
24421;SDS011;12600;53.326;-6.298;2024-03-02T01:44:46;7.18;;;2.10;;
24421;SDS011;12600;53.326;-6.298;2024-03-02T01:47:35;8.68;;;2.17;;
24421;SDS011;12600;53.326;-6.298;2024-03-02T01:50:26;9.10;;;2.20;;
24421;SDS011;12600;53.326;-6.298;2024-03-02T01:53:16;9.35;;;2.20;;
24421;SDS011;12600;53.326;-6.298;2024-03-02T01:56:07;4.85;;;2.10;;
24421;SDS011;12600;53.326;-6.298;2024-03-02T01:58:58;5.30;;;1.88;;
24421;SDS011;12600;53.326;-6.298;2024-03-02T02:01:48;6.40;;;2.40;;
24421;SDS011;12600;53.326;-6.298;2024-03-02T02:04:38;9.75;;;2.53;;
24421;SDS011;12600;53.326;-6.298;2024-03-02T02:07:27;5.75;;;1.90;;
24421;SDS011;12600;53.326;-6.298;2024-03-02T02:10:17;11.50;;;2.45;;
24421;SDS011;12600;53.326;-6.298;2024-03-02T02:13:08;10.52;;;2.28;;
24421;SDS011;12600;53.326;-6.298;2024-03-02T02:16:03;4.05;;;1.60;;
24421;SDS011;12600;53.326;-6.298;2024-03-02T02:18:55;9.05;;;2.22;;
24421;SDS011;12600;53.326;-6.298;2024-03-02T02:21:46;6.85;;;1.77;;
24421;SDS011;12600;53.326;-6.298;2024-03-02T02:24:35;6.18;;;1.75;;
24421;SDS011;12600;53.326;-6.298;2024-03-02T02:27:27;4.70;;;2.00;;
24421;SDS011;12600;53.326;-6.298;2024-03-02T02:30:18;8.13;;;2.53;;
24421;SDS011;12600;53.326;-6.298;2024-03-02T02:33:09;12.23;;;2.28;;
24421;SDS011;12600;53.326;-6.298;2024-03-02T02:36:00;8.40;;;2.08;;
24421;SDS011;12600;53.326;-6.298;2024-03-02T02:38:52;8.07;;;2.63;;
24421;SDS011;12600;53.326;-6.298;2024-03-02T02:41:42;4.15;;;1.77;;
24421;SDS011;12600;53.326;-6.298;2024-03-02T02:44:32;8.13;;;2.03;;
24421;SDS011;12600;53.326;-6.298;2024-03-02T02:47:22;11.27;;;2.45;;
24421;SDS011;12600;53.326;-6.298;2024-03-02T02:50:11;11.43;;;1.95;;
24421;SDS011;12600;53.326;-6.298;2024-03-02T02:53:01;11.82;;;2.25;;
24421;SDS011;12600;53.326;-6.298;2024-03-02T02:55:52;6.95;;;2.08;;
24421;SDS011;12600;53.326;-6.298;2024-03-02T02:58:41;12.27;;;2.47;;
24421;SDS011;12600;53.326;-6.298;2024-03-02T03:01:30;7.97;;;2.10;;
24421;SDS011;12600;53.326;-6.298;2024-03-02T03:04:20;7.72;;;2.30;;
24421;SDS011;12600;53.326;-6.298;2024-03-02T03:07:09;6.20;;;1.95;;
24421;SDS011;12600;53.326;-6.298;2024-03-02T03:09:59;6.68;;;1.70;;
24421;SDS011;12600;53.326;-6.298;2024-03-02T03:12:50;11.52;;;2.00;;
24421;SDS011;12600;53.326;-6.298;2024-03-02T03:15:40;10.05;;;2.08;;
24421;SDS011;12600;53.326;-6.298;2024-03-02T03:18:29;6.93;;;1.65;;
24421;SDS011;12600;53.326;-6.298;2024-03-02T03:21:19;19.75;;;3.42;;
24421;SDS011;12600;53.326;-6.298;2024-03-02T03:24:08;5.38;;;2.42;;
24421;SDS011;12600;53.326;-6.298;2024-03-02T03:26:57;7.88;;;2.60;;
24421;SDS011;12600;53.326;-6.298;2024-03-02T03:29:48;11.50;;;1.90;;
24421;SDS011;12600;53.326;-6.298;2024-03-02T03:32:38;7.95;;;2.38;;
24421;SDS011;12600;53.326;-6.298;2024-03-02T03:35:27;5.93;;;1.70;;
24421;SDS011;12600;53.326;-6.298;2024-03-02T03:38:17;7.85;;;1.77;;
24421;SDS011;12600;53.326;-6.298;2024-03-02T03:41:06;10.68;;;2.05;;
24421;SDS011;12600;53.326;-6.298;2024-03-02T03:43:55;12.35;;;2.13;;
24421;SDS011;12600;53.326;-6.298;2024-03-02T03:46:46;14.75;;;1.90;;
24421;SDS011;12600;53.326;-6.298;2024-03-02T03:49:36;4.22;;;1.80;;
24421;SDS011;12600;53.326;-6.298;2024-03-02T03:52:25;9.65;;;1.90;;
24421;SDS011;12600;53.326;-6.298;2024-03-02T03:55:14;7.55;;;1.75;;
24421;SDS011;12600;53.326;-6.298;2024-03-02T03:58:04;8.18;;;2.17;;
24421;SDS011;12600;53.326;-6.298;2024-03-02T04:00:54;7.45;;;2.40;;
24421;SDS011;12600;53.326;-6.298;2024-03-02T04:03:45;10.40;;;1.98;;
24421;SDS011;12600;53.326;-6.298;2024-03-02T04:06:34;9.55;;;2.30;;
24421;SDS011;12600;53.326;-6.298;2024-03-02T04:09:25;8.07;;;2.20;;
24421;SDS011;12600;53.326;-6.298;2024-03-02T04:12:14;5.97;;;1.80;;
24421;SDS011;12600;53.326;-6.298;2024-03-02T04:15:04;12.30;;;2.70;;
24421;SDS011;12600;53.326;-6.298;2024-03-02T04:17:54;14.32;;;4.10;;
24421;SDS011;12600;53.326;-6.298;2024-03-02T04:20:45;12.23;;;4.82;;
24421;SDS011;12600;53.326;-6.298;2024-03-02T04:23:38;13.50;;;5.00;;
24421;SDS011;12600;53.326;-6.298;2024-03-02T04:26:28;17.63;;;7.20;;
24421;SDS011;12600;53.326;-6.298;2024-03-02T04:29:17;12.02;;;4.03;;
24421;SDS011;12600;53.326;-6.298;2024-03-02T04:32:06;7.80;;;2.20;;
24421;SDS011;12600;53.326;-6.298;2024-03-02T04:34:56;11.63;;;2.30;;
24421;SDS011;12600;53.326;-6.298;2024-03-02T04:37:47;10.20;;;2.00;;
24421;SDS011;12600;53.326;-6.298;2024-03-02T04:40:36;8.45;;;1.92;;
24421;SDS011;12600;53.326;-6.298;2024-03-02T04:43:26;8.07;;;2.20;;
24421;SDS011;12600;53.326;-6.298;2024-03-02T04:46:15;9.80;;;2.60;;
24421;SDS011;12600;53.326;-6.298;2024-03-02T04:49:05;10.35;;;2.35;;
24421;SDS011;12600;53.326;-6.298;2024-03-02T04:51:54;11.32;;;1.90;;
24421;SDS011;12600;53.326;-6.298;2024-03-02T04:54:45;9.52;;;1.70;;
24421;SDS011;12600;53.326;-6.298;2024-03-02T04:57:52;7.93;;;1.88;;
24421;SDS011;12600;53.326;-6.298;2024-03-02T05:00:43;13.00;;;2.20;;
24421;SDS011;12600;53.326;-6.298;2024-03-02T05:03:34;10.15;;;1.65;;
24421;SDS011;12600;53.326;-6.298;2024-03-02T05:06:23;12.80;;;2.13;;
24421;SDS011;12600;53.326;-6.298;2024-03-02T05:09:13;6.55;;;1.50;;
24421;SDS011;12600;53.326;-6.298;2024-03-02T05:12:04;13.38;;;1.60;;
24421;SDS011;12600;53.326;-6.298;2024-03-02T05:15:28;8.65;;;1.63;;
24421;SDS011;12600;53.326;-6.298;2024-03-02T05:18:17;10.15;;;1.88;;
24421;SDS011;12600;53.326;-6.298;2024-03-02T05:21:07;6.55;;;1.50;;
24421;SDS011;12600;53.326;-6.298;2024-03-02T05:23:57;9.07;;;1.60;;
24421;SDS011;12600;53.326;-6.298;2024-03-02T05:26:46;7.78;;;1.65;;
24421;SDS011;12600;53.326;-6.298;2024-03-02T05:29:37;10.63;;;1.95;;
24421;SDS011;12600;53.326;-6.298;2024-03-02T05:32:27;9.55;;;1.85;;
24421;SDS011;12600;53.326;-6.298;2024-03-02T05:35:16;8.93;;;2.00;;
24421;SDS011;12600;53.326;-6.298;2024-03-02T05:38:06;13.68;;;2.17;;
24421;SDS011;12600;53.326;-6.298;2024-03-02T05:40:56;9.77;;;1.73;;
24421;SDS011;12600;53.326;-6.298;2024-03-02T05:43:45;9.43;;;2.88;;
24421;SDS011;12600;53.326;-6.298;2024-03-02T05:46:36;7.32;;;1.58;;
24421;SDS011;12600;53.326;-6.298;2024-03-02T05:49:27;12.27;;;1.75;;
24421;SDS011;12600;53.326;-6.298;2024-03-02T05:52:17;10.18;;;1.98;;
24421;SDS011;12600;53.326;-6.298;2024-03-02T05:55:08;6.45;;;2.17;;
24421;SDS011;12600;53.326;-6.298;2024-03-02T05:57:57;9.30;;;2.00;;
24421;SDS011;12600;53.326;-6.298;2024-03-02T06:01:03;8.98;;;1.95;;
24421;SDS011;12600;53.326;-6.298;2024-03-02T06:03:54;9.23;;;1.95;;
24421;SDS011;12600;53.326;-6.298;2024-03-02T06:06:44;4.38;;;1.30;;
24421;SDS011;12600;53.326;-6.298;2024-03-02T06:09:34;9.63;;;1.77;;
24421;SDS011;12600;53.326;-6.298;2024-03-02T06:12:23;11.13;;;1.90;;
24421;SDS011;12600;53.326;-6.298;2024-03-02T06:15:12;5.55;;;2.08;;
24421;SDS011;12600;53.326;-6.298;2024-03-02T06:18:02;8.93;;;1.80;;
24421;SDS011;12600;53.326;-6.298;2024-03-02T06:20:55;4.68;;;1.48;;
24421;SDS011;12600;53.326;-6.298;2024-03-02T06:23:44;6.53;;;1.30;;
24421;SDS011;12600;53.326;-6.298;2024-03-02T06:26:34;11.85;;;1.48;;
24421;SDS011;12600;53.326;-6.298;2024-03-02T06:29:23;8.80;;;1.60;;
24421;SDS011;12600;53.326;-6.298;2024-03-02T06:32:13;7.97;;;1.77;;
24421;SDS011;12600;53.326;-6.298;2024-03-02T06:35:02;8.00;;;1.70;;
24421;SDS011;12600;53.326;-6.298;2024-03-02T06:37:56;6.80;;;1.60;;
24421;SDS011;12600;53.326;-6.298;2024-03-02T06:40:45;6.85;;;2.13;;
24421;SDS011;12600;53.326;-6.298;2024-03-02T06:43:34;10.48;;;1.77;;
24421;SDS011;12600;53.326;-6.298;2024-03-02T06:46:25;3.25;;;1.00;;
24421;SDS011;12600;53.326;-6.298;2024-03-02T06:49:14;7.97;;;1.85;;
24421;SDS011;12600;53.326;-6.298;2024-03-02T06:52:05;9.32;;;1.48;;
24421;SDS011;12600;53.326;-6.298;2024-03-02T06:54:56;8.25;;;1.70;;
24421;SDS011;12600;53.326;-6.298;2024-03-02T06:57:45;8.38;;;1.85;;
24421;SDS011;12600;53.326;-6.298;2024-03-02T07:00:35;7.30;;;1.60;;
24421;SDS011;12600;53.326;-6.298;2024-03-02T07:03:24;4.55;;;1.60;;
24421;SDS011;12600;53.326;-6.298;2024-03-02T07:06:14;5.43;;;1.98;;
24421;SDS011;12600;53.326;-6.298;2024-03-02T07:09:03;6.68;;;2.05;;
24421;SDS011;12600;53.326;-6.298;2024-03-02T07:11:55;3.53;;;1.23;;
24421;SDS011;12600;53.326;-6.298;2024-03-02T07:14:45;8.10;;;2.00;;
24421;SDS011;12600;53.326;-6.298;2024-03-02T07:18:06;8.00;;;2.33;;
24421;SDS011;12600;53.326;-6.298;2024-03-02T07:20:56;5.78;;;2.08;;
24421;SDS011;12600;53.326;-6.298;2024-03-02T07:23:48;10.40;;;2.67;;
24421;SDS011;12600;53.326;-6.298;2024-03-02T07:26:37;6.80;;;2.15;;
24421;SDS011;12600;53.326;-6.298;2024-03-02T07:29:32;7.03;;;2.08;;
24421;SDS011;12600;53.326;-6.298;2024-03-02T07:32:21;9.77;;;2.45;;
24421;SDS011;12600;53.326;-6.298;2024-03-02T07:35:11;12.98;;;2.28;;
24421;SDS011;12600;53.326;-6.298;2024-03-02T07:38:01;6.53;;;1.75;;
24421;SDS011;12600;53.326;-6.298;2024-03-02T07:40:51;8.70;;;1.70;;
24421;SDS011;12600;53.326;-6.298;2024-03-02T07:43:41;8.43;;;2.85;;
24421;SDS011;12600;53.326;-6.298;2024-03-02T07:46:32;7.82;;;2.95;;
24421;SDS011;12600;53.326;-6.298;2024-03-02T07:49:21;8.25;;;2.20;;
24421;SDS011;12600;53.326;-6.298;2024-03-02T07:52:11;5.90;;;2.20;;
24421;SDS011;12600;53.326;-6.298;2024-03-02T07:55:00;4.78;;;2.08;;
24421;SDS011;12600;53.326;-6.298;2024-03-02T07:57:50;5.20;;;1.65;;
24421;SDS011;12600;53.326;-6.298;2024-03-02T08:00:40;6.65;;;1.98;;
24421;SDS011;12600;53.326;-6.298;2024-03-02T08:03:30;4.57;;;1.58;;
24421;SDS011;12600;53.326;-6.298;2024-03-02T08:06:21;4.25;;;1.85;;
24421;SDS011;12600;53.326;-6.298;2024-03-02T08:09:14;8.10;;;1.97;;
24421;SDS011;12600;53.326;-6.298;2024-03-02T08:12:03;6.57;;;2.45;;
24421;SDS011;12600;53.326;-6.298;2024-03-02T08:14:53;5.97;;;2.00;;
24421;SDS011;12600;53.326;-6.298;2024-03-02T08:17:43;8.60;;;2.10;;
24421;SDS011;12600;53.326;-6.298;2024-03-02T08:20:38;4.53;;;1.80;;
24421;SDS011;12600;53.326;-6.298;2024-03-02T08:23:28;8.93;;;1.90;;
24421;SDS011;12600;53.326;-6.298;2024-03-02T08:26:19;5.18;;;1.55;;
24421;SDS011;12600;53.326;-6.298;2024-03-02T08:29:08;5.30;;;1.50;;
24421;SDS011;12600;53.326;-6.298;2024-03-02T08:31:59;5.22;;;1.50;;
24421;SDS011;12600;53.326;-6.298;2024-03-02T08:34:48;3.83;;;1.30;;
24421;SDS011;12600;53.326;-6.298;2024-03-02T08:37:40;5.32;;;1.10;;
24421;SDS011;12600;53.326;-6.298;2024-03-02T08:43:20;3.40;;;1.30;;
24421;SDS011;12600;53.326;-6.298;2024-03-02T08:46:10;2.53;;;0.90;;
24421;SDS011;12600;53.326;-6.298;2024-03-02T08:48:59;4.05;;;0.85;;
24421;SDS011;12600;53.326;-6.298;2024-03-02T08:51:49;3.38;;;1.00;;
24421;SDS011;12600;53.326;-6.298;2024-03-02T08:57:33;4.20;;;1.70;;
24421;SDS011;12600;53.326;-6.298;2024-03-02T09:00:23;7.55;;;1.25;;
24421;SDS011;12600;53.326;-6.298;2024-03-02T09:03:13;5.75;;;1.40;;
24421;SDS011;12600;53.326;-6.298;2024-03-02T09:06:03;5.53;;;1.35;;
24421;SDS011;12600;53.326;-6.298;2024-03-02T09:08:53;2.90;;;0.90;;
24421;SDS011;12600;53.326;-6.298;2024-03-02T09:11:43;8.07;;;1.27;;
24421;SDS011;12600;53.326;-6.298;2024-03-02T09:14:35;4.28;;;1.10;;
24421;SDS011;12600;53.326;-6.298;2024-03-02T09:17:25;5.20;;;1.40;;
24421;SDS011;12600;53.326;-6.298;2024-03-02T09:20:14;3.72;;;1.00;;
24421;SDS011;12600;53.326;-6.298;2024-03-02T09:23:04;6.93;;;1.10;;
24421;SDS011;12600;53.326;-6.298;2024-03-02T09:25:53;6.28;;;1.38;;
24421;SDS011;12600;53.326;-6.298;2024-03-02T09:28:44;7.95;;;1.10;;
24421;SDS011;12600;53.326;-6.298;2024-03-02T09:31:38;2.90;;;1.25;;
24421;SDS011;12600;53.326;-6.298;2024-03-02T09:34:28;6.60;;;1.20;;
24421;SDS011;12600;53.326;-6.298;2024-03-02T09:37:18;5.60;;;1.77;;
24421;SDS011;12600;53.326;-6.298;2024-03-02T09:40:08;8.23;;;1.60;;
24421;SDS011;12600;53.326;-6.298;2024-03-02T09:42:59;4.13;;;1.15;;
24421;SDS011;12600;53.326;-6.298;2024-03-02T09:45:50;3.92;;;0.90;;
24421;SDS011;12600;53.326;-6.298;2024-03-02T09:48:40;7.18;;;1.27;;
24421;SDS011;12600;53.326;-6.298;2024-03-02T09:51:30;5.13;;;1.17;;
24421;SDS011;12600;53.326;-6.298;2024-03-02T09:54:20;2.67;;;0.80;;
24421;SDS011;12600;53.326;-6.298;2024-03-02T09:57:10;6.38;;;1.40;;
24421;SDS011;12600;53.326;-6.298;2024-03-02T10:00:00;6.25;;;2.72;;
24421;SDS011;12600;53.326;-6.298;2024-03-02T10:02:52;4.88;;;1.48;;
24421;SDS011;12600;53.326;-6.298;2024-03-02T10:05:42;5.18;;;1.25;;
24421;SDS011;12600;53.326;-6.298;2024-03-02T10:08:38;5.00;;;1.25;;
24421;SDS011;12600;53.326;-6.298;2024-03-02T10:11:33;4.63;;;1.30;;
24421;SDS011;12600;53.326;-6.298;2024-03-02T10:17:14;3.88;;;1.10;;
24421;SDS011;12600;53.326;-6.298;2024-03-02T10:20:23;5.87;;;1.70;;
24421;SDS011;12600;53.326;-6.298;2024-03-02T10:23:16;6.35;;;1.80;;
24421;SDS011;12600;53.326;-6.298;2024-03-02T10:26:06;5.85;;;1.83;;
24421;SDS011;12600;53.326;-6.298;2024-03-02T10:29:07;6.13;;;1.00;;
24421;SDS011;12600;53.326;-6.298;2024-03-02T10:31:58;2.80;;;1.10;;
24421;SDS011;12600;53.326;-6.298;2024-03-02T10:34:51;6.22;;;1.70;;
24421;SDS011;12600;53.326;-6.298;2024-03-02T10:37:42;5.82;;;1.52;;
24421;SDS011;12600;53.326;-6.298;2024-03-02T10:40:31;3.08;;;1.10;;
24421;SDS011;12600;53.326;-6.298;2024-03-02T10:43:21;8.30;;;1.92;;
24421;SDS011;12600;53.326;-6.298;2024-03-02T10:46:11;2.47;;;1.05;;
24421;SDS011;12600;53.326;-6.298;2024-03-02T10:49:02;1.88;;;1.20;;
24421;SDS011;12600;53.326;-6.298;2024-03-02T10:51:55;7.93;;;1.58;;
24421;SDS011;12600;53.326;-6.298;2024-03-02T10:54:47;7.18;;;1.15;;
24421;SDS011;12600;53.326;-6.298;2024-03-02T10:57:40;3.33;;;1.38;;
24421;SDS011;12600;53.326;-6.298;2024-03-02T11:00:34;6.68;;;1.50;;
24421;SDS011;12600;53.326;-6.298;2024-03-02T11:03:26;5.00;;;1.17;;
24421;SDS011;12600;53.326;-6.298;2024-03-02T11:06:17;6.18;;;1.60;;
24421;SDS011;12600;53.326;-6.298;2024-03-02T11:09:08;4.25;;;1.48;;
24421;SDS011;12600;53.326;-6.298;2024-03-02T11:12:02;1.98;;;1.50;;
24421;SDS011;12600;53.326;-6.298;2024-03-02T11:14:58;4.95;;;1.70;;
24421;SDS011;12600;53.326;-6.298;2024-03-02T11:17:48;3.80;;;1.33;;
24421;SDS011;12600;53.326;-6.298;2024-03-02T11:20:39;3.30;;;1.35;;
24421;SDS011;12600;53.326;-6.298;2024-03-02T11:23:33;3.95;;;1.30;;
24421;SDS011;12600;53.326;-6.298;2024-03-02T11:26:23;3.45;;;1.30;;
24421;SDS011;12600;53.326;-6.298;2024-03-02T11:29:22;4.78;;;1.40;;
24421;SDS011;12600;53.326;-6.298;2024-03-02T11:32:32;2.63;;;0.90;;
24421;SDS011;12600;53.326;-6.298;2024-03-02T11:35:22;6.55;;;1.10;;
24421;SDS011;12600;53.326;-6.298;2024-03-02T11:38:13;2.63;;;1.15;;
24421;SDS011;12600;53.326;-6.298;2024-03-02T11:41:05;1.95;;;0.82;;
24421;SDS011;12600;53.326;-6.298;2024-03-02T11:43:57;3.22;;;1.20;;
24421;SDS011;12600;53.326;-6.298;2024-03-02T11:46:53;3.85;;;0.90;;
24421;SDS011;12600;53.326;-6.298;2024-03-02T11:49:49;4.35;;;1.20;;
24421;SDS011;12600;53.326;-6.298;2024-03-02T11:52:39;4.18;;;1.00;;
24421;SDS011;12600;53.326;-6.298;2024-03-02T11:55:31;3.13;;;1.20;;
24421;SDS011;12600;53.326;-6.298;2024-03-02T11:58:23;3.85;;;1.05;;
24421;SDS011;12600;53.326;-6.298;2024-03-02T12:01:13;2.78;;;1.00;;
24421;SDS011;12600;53.326;-6.298;2024-03-02T12:04:05;5.38;;;1.17;;
24421;SDS011;12600;53.326;-6.298;2024-03-02T12:06:55;3.37;;;0.90;;
24421;SDS011;12600;53.326;-6.298;2024-03-02T12:09:48;4.45;;;0.90;;
24421;SDS011;12600;53.326;-6.298;2024-03-02T12:12:47;3.38;;;1.10;;
24421;SDS011;12600;53.326;-6.298;2024-03-02T12:15:43;2.88;;;0.90;;
24421;SDS011;12600;53.326;-6.298;2024-03-02T12:18:32;2.92;;;0.85;;
24421;SDS011;12600;53.326;-6.298;2024-03-02T12:21:24;2.38;;;0.77;;
24421;SDS011;12600;53.326;-6.298;2024-03-02T12:24:14;4.07;;;1.10;;
24421;SDS011;12600;53.326;-6.298;2024-03-02T12:27:04;1.40;;;0.70;;
24421;SDS011;12600;53.326;-6.298;2024-03-02T12:29:55;1.80;;;0.60;;
24421;SDS011;12600;53.326;-6.298;2024-03-02T12:32:44;2.35;;;0.88;;
24421;SDS011;12600;53.326;-6.298;2024-03-02T12:35:35;2.22;;;1.10;;
24421;SDS011;12600;53.326;-6.298;2024-03-02T12:38:26;2.05;;;0.90;;
24421;SDS011;12600;53.326;-6.298;2024-03-02T12:41:16;2.30;;;1.13;;
24421;SDS011;12600;53.326;-6.298;2024-03-02T12:44:06;1.95;;;0.90;;
24421;SDS011;12600;53.326;-6.298;2024-03-02T12:46:56;1.98;;;1.08;;
24421;SDS011;12600;53.326;-6.298;2024-03-02T12:49:48;2.00;;;1.10;;
24421;SDS011;12600;53.326;-6.298;2024-03-02T12:52:39;2.33;;;1.20;;
24421;SDS011;12600;53.326;-6.298;2024-03-02T12:55:30;1.80;;;0.73;;
24421;SDS011;12600;53.326;-6.298;2024-03-02T12:58:21;1.63;;;0.73;;
24421;SDS011;12600;53.326;-6.298;2024-03-02T13:01:14;1.85;;;0.98;;
24421;SDS011;12600;53.326;-6.298;2024-03-02T13:04:06;2.47;;;0.75;;
24421;SDS011;12600;53.326;-6.298;2024-03-02T13:06:57;2.40;;;0.77;;
24421;SDS011;12600;53.326;-6.298;2024-03-02T13:09:47;1.40;;;0.90;;
24421;SDS011;12600;53.326;-6.298;2024-03-02T13:12:39;1.67;;;0.88;;
24421;SDS011;12600;53.326;-6.298;2024-03-02T13:15:28;2.38;;;0.90;;
24421;SDS011;12600;53.326;-6.298;2024-03-02T13:18:18;2.92;;;1.10;;
24421;SDS011;12600;53.326;-6.298;2024-03-02T13:21:08;3.08;;;1.77;;
24421;SDS011;12600;53.326;-6.298;2024-03-02T13:23:57;4.38;;;1.67;;
24421;SDS011;12600;53.326;-6.298;2024-03-02T13:26:47;2.80;;;1.20;;
24421;SDS011;12600;53.326;-6.298;2024-03-02T13:29:38;2.58;;;1.10;;
24421;SDS011;12600;53.326;-6.298;2024-03-02T13:32:27;2.05;;;0.77;;
24421;SDS011;12600;53.326;-6.298;2024-03-02T13:35:17;1.00;;;0.57;;
24421;SDS011;12600;53.326;-6.298;2024-03-02T13:38:06;6.65;;;0.98;;
24421;SDS011;12600;53.326;-6.298;2024-03-02T13:40:56;2.88;;;0.90;;
24421;SDS011;12600;53.326;-6.298;2024-03-02T13:43:48;1.98;;;0.90;;
24421;SDS011;12600;53.326;-6.298;2024-03-02T13:46:41;4.00;;;1.15;;
24421;SDS011;12600;53.326;-6.298;2024-03-02T13:49:32;3.38;;;1.17;;
24421;SDS011;12600;53.326;-6.298;2024-03-02T13:52:25;3.20;;;1.17;;
24421;SDS011;12600;53.326;-6.298;2024-03-02T13:55:14;3.88;;;1.58;;
24421;SDS011;12600;53.326;-6.298;2024-03-02T13:58:04;2.33;;;1.38;;
24421;SDS011;12600;53.326;-6.298;2024-03-02T14:00:54;2.85;;;1.15;;
24421;SDS011;12600;53.326;-6.298;2024-03-02T14:03:46;4.90;;;1.30;;
24421;SDS011;12600;53.326;-6.298;2024-03-02T14:06:36;4.68;;;1.38;;
24421;SDS011;12600;53.326;-6.298;2024-03-02T14:09:25;3.47;;;1.30;;
24421;SDS011;12600;53.326;-6.298;2024-03-02T14:12:15;1.50;;;0.90;;
24421;SDS011;12600;53.326;-6.298;2024-03-02T14:15:05;2.60;;;1.20;;
24421;SDS011;12600;53.326;-6.298;2024-03-02T14:17:56;5.70;;;1.65;;
24421;SDS011;12600;53.326;-6.298;2024-03-02T14:20:47;2.13;;;1.15;;
24421;SDS011;12600;53.326;-6.298;2024-03-02T14:23:40;2.67;;;1.10;;
24421;SDS011;12600;53.326;-6.298;2024-03-02T14:26:29;4.35;;;0.80;;
24421;SDS011;12600;53.326;-6.298;2024-03-02T14:29:20;3.10;;;1.20;;
24421;SDS011;12600;53.326;-6.298;2024-03-02T14:32:09;2.42;;;1.15;;
24421;SDS011;12600;53.326;-6.298;2024-03-02T14:34:58;2.35;;;1.25;;
24421;SDS011;12600;53.326;-6.298;2024-03-02T14:37:49;5.50;;;1.27;;
24421;SDS011;12600;53.326;-6.298;2024-03-02T14:40:40;1.52;;;0.90;;
24421;SDS011;12600;53.326;-6.298;2024-03-02T14:43:30;3.63;;;1.70;;
24421;SDS011;12600;53.326;-6.298;2024-03-02T14:46:19;2.47;;;1.20;;
24421;SDS011;12600;53.326;-6.298;2024-03-02T14:49:10;2.80;;;0.90;;
24421;SDS011;12600;53.326;-6.298;2024-03-02T14:52:00;3.55;;;1.35;;
24421;SDS011;12600;53.326;-6.298;2024-03-02T14:54:51;3.13;;;0.95;;
24421;SDS011;12600;53.326;-6.298;2024-03-02T14:57:40;3.40;;;1.20;;
24421;SDS011;12600;53.326;-6.298;2024-03-02T15:00:30;3.53;;;1.27;;
24421;SDS011;12600;53.326;-6.298;2024-03-02T15:03:20;2.60;;;1.10;;
24421;SDS011;12600;53.326;-6.298;2024-03-02T15:06:10;4.75;;;1.40;;
24421;SDS011;12600;53.326;-6.298;2024-03-02T15:09:00;5.05;;;1.60;;
24421;SDS011;12600;53.326;-6.298;2024-03-02T15:11:51;3.78;;;1.70;;
24421;SDS011;12600;53.326;-6.298;2024-03-02T15:14:41;6.13;;;2.38;;
24421;SDS011;12600;53.326;-6.298;2024-03-02T15:17:33;3.88;;;1.83;;
24421;SDS011;12600;53.326;-6.298;2024-03-02T15:20:23;3.65;;;1.67;;
24421;SDS011;12600;53.326;-6.298;2024-03-02T15:23:13;6.25;;;2.10;;
24421;SDS011;12600;53.326;-6.298;2024-03-02T15:26:03;6.57;;;2.33;;
24421;SDS011;12600;53.326;-6.298;2024-03-02T15:28:57;3.30;;;1.58;;
24421;SDS011;12600;53.326;-6.298;2024-03-02T15:31:47;7.80;;;3.75;;
24421;SDS011;12600;53.326;-6.298;2024-03-02T15:34:36;11.07;;;4.15;;
24421;SDS011;12600;53.326;-6.298;2024-03-02T15:37:26;5.85;;;3.50;;
24421;SDS011;12600;53.326;-6.298;2024-03-02T15:40:16;5.75;;;2.08;;
24421;SDS011;12600;53.326;-6.298;2024-03-02T15:43:06;8.93;;;4.55;;
24421;SDS011;12600;53.326;-6.298;2024-03-02T15:45:57;9.35;;;4.85;;
24421;SDS011;12600;53.326;-6.298;2024-03-02T15:48:47;4.95;;;2.40;;
24421;SDS011;12600;53.326;-6.298;2024-03-02T15:51:37;7.35;;;3.17;;
24421;SDS011;12600;53.326;-6.298;2024-03-02T15:54:31;12.43;;;6.38;;
24421;SDS011;12600;53.326;-6.298;2024-03-02T15:57:21;7.18;;;2.95;;
24421;SDS011;12600;53.326;-6.298;2024-03-02T16:00:12;10.35;;;4.25;;
24421;SDS011;12600;53.326;-6.298;2024-03-02T16:03:04;8.18;;;2.35;;
24421;SDS011;12600;53.326;-6.298;2024-03-02T16:05:53;7.68;;;3.78;;
24421;SDS011;12600;53.326;-6.298;2024-03-02T16:08:43;8.13;;;3.20;;
24421;SDS011;12600;53.326;-6.298;2024-03-02T16:11:33;10.85;;;3.88;;
24421;SDS011;12600;53.326;-6.298;2024-03-02T16:14:23;9.50;;;3.80;;
24421;SDS011;12600;53.326;-6.298;2024-03-02T16:17:13;17.52;;;7.63;;
24421;SDS011;12600;53.326;-6.298;2024-03-02T16:20:04;10.30;;;4.60;;
24421;SDS011;12600;53.326;-6.298;2024-03-02T16:22:57;9.45;;;3.63;;
24421;SDS011;12600;53.326;-6.298;2024-03-02T16:25:47;18.02;;;9.27;;
24421;SDS011;12600;53.326;-6.298;2024-03-02T16:28:36;6.90;;;2.95;;
24421;SDS011;12600;53.326;-6.298;2024-03-02T16:31:26;14.35;;;7.38;;
24421;SDS011;12600;53.326;-6.298;2024-03-02T16:34:16;13.43;;;6.38;;
24421;SDS011;12600;53.326;-6.298;2024-03-02T16:37:07;12.90;;;5.43;;
24421;SDS011;12600;53.326;-6.298;2024-03-02T16:39:56;13.10;;;4.70;;
24421;SDS011;12600;53.326;-6.298;2024-03-02T16:42:46;10.75;;;4.72;;
24421;SDS011;12600;53.326;-6.298;2024-03-02T16:45:35;11.80;;;4.47;;
24421;SDS011;12600;53.326;-6.298;2024-03-02T16:48:25;11.52;;;4.53;;
24421;SDS011;12600;53.326;-6.298;2024-03-02T16:51:14;13.88;;;8.38;;
24421;SDS011;12600;53.326;-6.298;2024-03-02T16:54:05;8.23;;;4.45;;
24421;SDS011;12600;53.326;-6.298;2024-03-02T16:56:55;8.00;;;4.60;;
24421;SDS011;12600;53.326;-6.298;2024-03-02T16:59:45;6.15;;;3.38;;
24421;SDS011;12600;53.326;-6.298;2024-03-02T17:02:35;7.65;;;4.15;;
24421;SDS011;12600;53.326;-6.298;2024-03-02T17:05:24;7.80;;;3.97;;